createdAt,value
2024-03-06T00:00:05.812Z,8.54
2024-03-06T00:05:09.373Z,8.53
2024-03-06T00:10:11.457Z,8.57
2024-03-06T00:15:13.253Z,8.54
2024-03-06T00:20:15.277Z,8.53
2024-03-06T00:25:17.482Z,8.44
2024-03-06T00:30:19.614Z,8.42
2024-03-06T00:35:22.990Z,8.45
2024-03-06T00:40:25.402Z,8.49
2024-03-06T00:45:27.164Z,8.54
2024-03-06T00:50:28.936Z,8.53
2024-03-06T00:55:31.120Z,8.51
2024-03-06T01:00:32.920Z,8.48
2024-03-06T01:05:34.682Z,8.49
2024-03-06T01:10:36.967Z,8.49
2024-03-06T01:15:39.939Z,8.53
2024-03-06T01:20:42.277Z,8.51
2024-03-06T01:25:44.293Z,8.46
2024-03-06T01:30:46.281Z,8.44
2024-03-06T01:36:01.324Z,8.46
2024-03-06T01:41:05.981Z,8.45
2024-03-06T01:46:08.463Z,8.42
2024-03-06T01:51:11.166Z,8.39
2024-03-06T01:56:19.284Z,8.45
2024-03-06T02:01:23.711Z,8.41
2024-03-06T02:06:27.672Z,8.33
2024-03-06T02:11:30.897Z,8.32
2024-03-06T02:16:36.302Z,8.40
2024-03-06T02:21:39.773Z,8.39
2024-03-06T02:26:43.397Z,8.38
2024-03-06T02:31:46.888Z,8.45
2024-03-06T02:37:03.808Z,8.49
2024-03-06T02:42:10.101Z,8.49
2024-03-06T02:47:12.364Z,8.41
2024-03-06T02:52:14.267Z,8.34
2024-03-06T02:57:16.150Z,8.24
2024-03-06T03:02:18.148Z,8.17
2024-03-06T03:07:22.890Z,8.18
2024-03-06T03:12:24.770Z,8.19
2024-03-06T03:17:26.922Z,8.26
2024-03-06T03:22:28.948Z,8.26
2024-03-06T03:27:30.661Z,8.32
2024-03-06T03:32:32.948Z,8.30
2024-03-06T03:37:35.514Z,8.24
2024-03-06T03:42:39.686Z,8.20
2024-03-06T03:47:43.900Z,8.20
2024-03-06T03:52:46.062Z,8.24
2024-03-06T03:57:47.860Z,8.27
2024-03-06T04:02:50.067Z,8.26
2024-03-06T04:07:51.980Z,8.26
2024-03-06T04:12:54.620Z,8.28
2024-03-06T04:18:10.891Z,8.34
2024-03-06T04:23:12.784Z,8.37
2024-03-06T04:28:14.619Z,8.37
2024-03-06T04:33:16.494Z,8.31
2024-03-06T04:38:18.928Z,8.26
2024-03-06T04:43:20.909Z,8.18
2024-03-06T04:48:23.395Z,8.17
2024-03-06T04:53:25.206Z,8.17
2024-03-06T04:58:27.103Z,8.19
2024-03-06T06:02:11.774Z,8.11
2024-03-06T06:07:13.893Z,8.10
2024-03-06T06:12:15.859Z,8.13
2024-03-06T06:17:18.781Z,8.14
2024-03-06T06:22:20.808Z,8.17
2024-03-06T06:27:22.776Z,8.20
2024-03-06T06:32:24.963Z,8.28
2024-03-06T06:37:45.501Z,8.31
2024-03-06T06:42:52.758Z,8.34
2024-03-06T06:47:55.197Z,8.42
2024-03-06T06:52:57.815Z,8.61
2024-03-06T06:58:00.047Z,8.77
2024-03-06T07:03:01.793Z,8.71
2024-03-06T07:08:03.939Z,8.65
2024-03-06T07:13:09.100Z,8.56
2024-03-06T07:18:11.296Z,8.56
2024-03-06T07:23:13.128Z,8.59
2024-03-06T07:28:14.952Z,8.63
2024-03-06T07:33:16.843Z,8.63
2024-03-06T07:38:37.154Z,8.70
2024-03-06T07:43:39.786Z,8.78
2024-03-06T07:48:47.547Z,8.85
2024-03-06T07:53:51.566Z,8.86
2024-03-06T07:58:54.704Z,8.81
2024-03-06T08:03:57.794Z,8.78
2024-03-06T08:09:01.929Z,8.81
2024-03-06T08:14:07.389Z,8.87
2024-03-06T08:19:09.299Z,8.94
2024-03-06T08:24:12.093Z,8.90
2024-03-06T08:29:14.147Z,8.98
2024-03-06T08:34:17.930Z,9.08
2024-03-06T08:39:22.439Z,9.15
2024-03-06T08:44:24.229Z,9.24
2024-03-06T08:49:26.779Z,9.24
2024-03-06T08:54:28.789Z,9.23
2024-03-06T08:59:31.963Z,9.33
2024-03-06T09:04:33.946Z,9.35
2024-03-06T09:09:37.406Z,9.33
2024-03-06T09:14:40.124Z,9.40
2024-03-06T09:19:51.826Z,9.45
2024-03-06T09:25:02.920Z,9.53
2024-03-06T09:30:05.227Z,9.60
2024-03-06T09:35:08.746Z,9.56
2024-03-06T09:40:12.245Z,9.65
2024-03-06T09:45:14.895Z,9.72
2024-03-06T09:50:17.849Z,9.69
2024-03-06T09:55:19.712Z,9.68
2024-03-06T10:00:22.971Z,9.73
2024-03-06T10:05:25.611Z,9.69
2024-03-06T10:10:27.928Z,9.70
2024-03-06T10:15:30.352Z,9.79
2024-03-06T10:20:36.204Z,9.95
2024-03-06T10:25:38.129Z,10.17
2024-03-06T10:30:44.989Z,10.30
2024-03-06T10:35:49.668Z,10.43
2024-03-06T10:40:52.435Z,10.55
2024-03-06T10:46:11.730Z,10.54
2024-03-06T10:51:15.146Z,10.66
2024-03-06T10:56:18.614Z,10.71
2024-03-06T11:01:21.147Z,10.64
2024-03-06T11:06:23.023Z,10.69
2024-03-06T11:11:26.004Z,10.72
2024-03-06T11:16:30.828Z,10.74
2024-03-06T11:21:33.227Z,10.74
2024-03-06T11:26:36.939Z,10.75
2024-03-06T11:31:41.670Z,10.73
2024-03-06T11:36:44.384Z,10.67
2024-03-06T11:41:46.605Z,10.75
2024-03-06T11:46:49.906Z,10.74
2024-03-06T11:51:53.419Z,10.73
2024-03-06T11:56:57.417Z,10.80
2024-03-06T12:02:04.531Z,10.87
2024-03-06T12:07:07.277Z,10.94
2024-03-06T12:12:12.131Z,11.02
2024-03-06T12:17:18.365Z,10.98
2024-03-06T12:22:20.374Z,10.98
2024-03-06T12:27:23.933Z,11.00
2024-03-06T12:32:37.919Z,11.01
2024-03-06T12:37:40.825Z,10.98
2024-03-06T12:42:42.604Z,10.97
2024-03-06T12:47:45.384Z,10.96
2024-03-06T12:52:47.437Z,11.05
2024-03-06T12:57:50.917Z,11.10
2024-03-06T13:02:52.700Z,11.14
2024-03-06T13:07:55.100Z,11.20
2024-03-06T13:12:56.878Z,11.30
2024-03-06T13:17:59.155Z,11.37
2024-03-06T13:23:01.288Z,11.32
2024-03-06T13:28:04.319Z,11.38
2024-03-06T13:33:06.666Z,11.44
2024-03-06T13:38:08.972Z,11.49
2024-03-06T13:43:10.896Z,11.52
2024-03-06T13:48:17.090Z,11.47
2024-03-06T13:53:19.136Z,11.10
2024-03-06T13:58:21.576Z,10.86
2024-03-06T14:03:23.396Z,10.70
2024-03-06T14:08:26.793Z,10.58
2024-03-06T14:13:28.623Z,10.50
2024-03-06T14:18:30.460Z,10.40
2024-03-06T14:23:33.540Z,10.32
2024-03-06T14:28:35.648Z,10.30
2024-03-06T14:33:40.689Z,10.29
2024-03-06T14:39:00.920Z,10.29
2024-03-06T14:44:03.851Z,10.17
2024-03-06T14:49:05.987Z,10.15
2024-03-06T14:54:08.073Z,10.14
2024-03-06T14:59:10.008Z,10.07
2024-03-06T15:04:14.637Z,10.01
2024-03-06T15:09:22.886Z,9.98
2024-03-06T15:14:26.171Z,9.91
2024-03-06T15:19:28.627Z,9.92
2024-03-06T15:24:31.718Z,9.85
2024-03-06T15:29:33.868Z,9.80
2024-03-06T15:34:35.725Z,9.79
2024-03-06T15:39:37.520Z,9.78
2024-03-06T15:44:40.173Z,9.75
2024-03-06T15:49:42.271Z,9.64
2024-03-06T15:54:44.341Z,9.52
2024-03-06T15:59:46.390Z,9.44
2024-03-06T16:04:48.214Z,9.40
2024-03-06T16:09:53.584Z,9.45
2024-03-06T16:14:55.614Z,9.46
2024-03-06T16:25:46.120Z,9.37
2024-03-06T16:30:47.921Z,9.34
2024-03-06T16:35:49.857Z,9.34
2024-03-06T16:40:51.931Z,9.44
2024-03-06T16:45:53.914Z,9.40
2024-03-06T16:50:56.025Z,9.25
2024-03-06T16:55:58.915Z,9.11
2024-03-06T17:01:00.989Z,9.18
2024-03-06T17:06:03.027Z,9.27
2024-03-06T17:11:05.424Z,9.28
2024-03-06T17:16:11.273Z,9.23
2024-03-06T17:21:13.249Z,9.03
2024-03-06T17:26:15.458Z,8.88
2024-03-06T17:31:17.410Z,8.81
2024-03-06T17:36:19.244Z,8.82
2024-03-06T17:41:21.322Z,8.82
2024-03-06T17:46:23.186Z,8.80
2024-03-06T17:51:32.611Z,8.76
2024-03-06T17:56:34.560Z,8.72
2024-03-06T18:01:37.055Z,8.80
2024-03-06T18:06:40.002Z,8.79
2024-03-06T18:11:43.168Z,8.82
2024-03-06T18:17:05.626Z,8.84
2024-03-06T18:22:07.904Z,8.72
2024-03-06T18:27:10.398Z,8.68
2024-03-06T18:32:13.523Z,8.69
2024-03-06T18:37:16.181Z,8.60
2024-03-06T18:42:21.597Z,8.49
2024-03-06T18:47:24.474Z,8.52
2024-03-06T18:52:26.496Z,8.57
2024-03-06T18:57:31.284Z,8.67
2024-03-06T19:02:33.675Z,8.74
2024-03-06T19:07:35.649Z,8.75
2024-03-06T19:12:42.981Z,8.56
2024-03-06T19:17:46.096Z,8.47
2024-03-06T19:22:50.289Z,8.44
2024-03-06T19:27:52.429Z,8.49
2024-03-06T19:32:55.776Z,8.47
2024-03-06T19:38:04.723Z,8.44
2024-03-06T19:43:07.304Z,8.32
2024-03-06T19:48:10.419Z,8.29
2024-03-06T19:53:15.444Z,8.32
2024-03-06T19:58:17.781Z,8.32
2024-03-06T20:03:20.083Z,8.34
2024-03-06T20:08:22.572Z,8.28
2024-03-06T20:13:25.649Z,8.22
2024-03-06T20:18:27.906Z,8.20
2024-03-06T20:23:44.183Z,8.15
2024-03-06T20:28:52.341Z,8.10
2024-03-06T20:33:56.014Z,7.88
2024-03-06T20:38:58.691Z,7.51
2024-03-06T20:44:00.950Z,7.59
2024-03-06T20:49:04.232Z,7.61
2024-03-06T20:54:06.668Z,7.51
2024-03-06T20:59:08.763Z,7.35
2024-03-06T21:04:14.859Z,7.06
2024-03-06T21:09:17.856Z,7.12
2024-03-06T21:14:22.135Z,6.76
2024-03-06T21:19:24.704Z,6.61
2024-03-06T21:24:27.953Z,6.57
2024-03-06T21:29:32.624Z,6.51
2024-03-06T21:34:34.761Z,7.19
2024-03-06T21:39:55.467Z,7.55
2024-03-06T21:44:58.280Z,7.83
2024-03-06T21:50:00.210Z,7.87
2024-03-06T21:55:03.203Z,7.97
2024-03-06T22:00:08.139Z,8.10
2024-03-06T22:05:10.124Z,8.06
2024-03-06T22:10:12.148Z,7.93
2024-03-06T22:15:13.978Z,7.88
2024-03-06T22:20:16.002Z,7.89
2024-03-06T22:25:18.075Z,7.79
2024-03-06T22:30:20.017Z,7.80
2024-03-06T22:35:22.011Z,7.71
2024-03-06T22:40:23.959Z,7.61
2024-03-06T22:45:25.864Z,7.56
2024-03-06T22:50:27.750Z,7.44
2024-03-06T22:55:29.633Z,7.37
2024-03-06T23:00:39.301Z,7.32
2024-03-06T23:05:41.461Z,7.32
2024-03-06T23:10:44.280Z,7.32
2024-03-06T23:15:47.584Z,7.32
2024-03-06T23:20:50.198Z,7.37
2024-03-06T23:25:52.169Z,7.32
2024-03-06T23:30:54.014Z,7.38
2024-03-06T23:35:56.157Z,7.34
2024-03-06T23:40:57.969Z,7.30
2024-03-06T23:45:59.836Z,7.29
2024-03-06T23:51:05.141Z,7.40
2024-03-06T23:56:07.468Z,7.40
